Time;durP1;ratioP1;P1;durP2;ratioP2;P2;SDS_P1;SDS_P2;PMS_P1;PMS_P2;Temp;Humidity;BMP_temperature;BMP_pressure;BME280_temperature;BME280_humidity;BME280_pressure;Samples;Min_cycle;Max_cycle;Signal;HPM_P1;HPM_P2
2023/01/15 00:01:28;;;;;;;5.60;0.70;;;6.80;99.90;;;;;;4990724;28;20502;-38
2023/01/15 00:03:54;;;;;;;5.85;0.70;;;6.80;99.90;;;;;;4985213;28;20519;-39
2023/01/15 00:06:21;;;;;;;4.82;0.70;;;6.80;99.90;;;;;;4986649;28;20046;-37
2023/01/15 00:08:48;;;;;;;5.18;0.70;;;6.80;99.90;;;;;;4985905;28;20053;-38
2023/01/15 00:11:14;;;;;;;7.28;0.90;;;6.80;99.90;;;;;;4983937;28;20580;-40
2023/01/15 00:13:40;;;;;;;6.88;0.75;;;6.80;99.90;;;;;;4985347;28;20045;-39
2023/01/15 00:16:15;;;;;;;5.63;0.70;;;6.80;99.90;;;;;;4988572;28;20436;-37
2023/01/15 00:18:42;;;;;;;4.57;0.40;;;6.80;99.90;;;;;;4986262;28;20424;-39
2023/01/15 00:21:12;;;;;;;3.70;0.40;;;6.90;99.90;;;;;;4989726;28;20045;-35
2023/01/15 00:29:11;;;;;;;5.22;1.00;;;6.80;99.90;;;;;;4985585;28;20046;-35
2023/01/15 00:31:37;;;;;;;6.70;1.33;;;6.80;99.90;;;;;;4974573;28;20499;-36
2023/01/15 00:34:03;;;;;;;8.05;0.90;;;6.80;99.90;;;;;;4973288;28;20042;-35
2023/01/15 00:36:29;;;;;;;6.40;1.23;;;6.80;99.90;;;;;;5009128;28;20088;-36
2023/01/15 00:38:54;;;;;;;10.60;0.77;;;6.80;99.90;;;;;;5010328;28;20061;-35
2023/01/15 00:41:20;;;;;;;7.18;1.77;;;6.80;99.90;;;;;;5009141;28;20124;-35
2023/01/15 00:43:46;;;;;;;5.72;0.60;;;6.80;99.90;;;;;;4990406;28;20117;-36
2023/01/15 00:46:12;;;;;;;8.10;0.68;;;6.80;99.90;;;;;;5009184;28;20044;-35
2023/01/15 00:48:38;;;;;;;6.45;0.50;;;6.80;99.90;;;;;;5007837;28;20517;-36
2023/01/15 00:51:04;;;;;;;7.00;0.60;;;6.80;99.90;;;;;;5008597;28;20863;-37
2023/01/15 00:53:30;;;;;;;3.03;0.50;;;6.80;99.90;;;;;;5007163;28;20034;-36
2023/01/15 00:55:56;;;;;;;6.80;1.55;;;6.80;99.90;;;;;;5007775;28;20041;-36
2023/01/15 00:58:22;;;;;;;3.03;0.55;;;6.80;99.90;;;;;;5007666;28;20036;-36
2023/01/15 01:00:59;;;;;;;6.90;0.60;;;6.80;99.90;;;;;;5007442;28;20050;-37
2023/01/15 01:03:25;;;;;;;9.80;2.15;;;6.80;99.90;;;;;;5008797;28;20045;-41
2023/01/15 01:05:51;;;;;;;6.72;1.73;;;6.80;99.90;;;;;;5007522;28;20044;-36
2023/01/15 01:08:18;;;;;;;8.45;0.70;;;6.80;99.90;;;;;;5008983;28;20092;-36
2023/01/15 01:10:44;;;;;;;8.13;0.80;;;6.80;99.90;;;;;;5010406;28;20088;-36
2023/01/15 01:13:10;;;;;;;7.38;0.68;;;6.80;99.90;;;;;;5007242;28;20050;-38
2023/01/15 01:15:37;;;;;;;7.25;0.70;;;6.80;99.90;;;;;;5008719;28;20065;-36
2023/01/15 01:18:03;;;;;;;2.90;0.68;;;6.80;99.90;;;;;;4998677;28;20773;-39
2023/01/15 01:20:29;;;;;;;5.22;0.60;;;6.80;99.90;;;;;;5003910;28;20445;-37
2023/01/15 01:22:55;;;;;;;4.80;1.10;;;6.80;99.90;;;;;;5004969;28;20376;-36
2023/01/15 01:25:21;;;;;;;9.82;0.90;;;6.80;99.90;;;;;;5007031;28;20042;-37
2023/01/15 01:27:47;;;;;;;7.72;0.70;;;6.80;99.90;;;;;;5003936;28;20069;-37
2023/01/15 01:30:13;;;;;;;3.75;1.08;;;6.80;99.90;;;;;;5006815;28;20502;-38
2023/01/15 01:32:43;;;;;;;4.45;0.80;;;6.80;99.90;;;;;;5005086;28;20041;-37
2023/01/15 01:35:09;;;;;;;5.20;1.23;;;6.70;99.90;;;;;;5007629;28;20042;-36
2023/01/15 01:37:35;;;;;;;10.45;0.95;;;6.70;99.90;;;;;;5006161;28;20172;-38
2023/01/15 01:40:01;;;;;;;9.35;0.77;;;6.70;99.90;;;;;;5007892;28;20038;-36
2023/01/15 01:42:26;;;;;;;4.97;0.63;;;6.70;99.90;;;;;;5009968;28;20034;-36
2023/01/15 01:45:02;;;;;;;5.53;0.77;;;6.70;99.90;;;;;;5009552;28;20045;-36
2023/01/15 01:47:30;;;;;;;7.20;0.45;;;6.70;99.90;;;;;;5011095;28;20506;-36
2023/01/15 01:50:06;;;;;;;9.48;1.17;;;6.70;99.90;;;;;;5008965;28;20077;-37
2023/01/15 01:52:40;;;;;;;5.85;0.95;;;6.60;99.90;;;;;;5005741;28;20511;-38
2023/01/15 01:55:07;;;;;;;6.50;0.60;;;6.60;99.90;;;;;;5005516;28;20084;-36
2023/01/15 01:57:33;;;;;;;8.20;0.70;;;6.60;99.90;;;;;;5007024;28;20045;-37
2023/01/15 02:00:00;;;;;;;7.20;0.68;;;6.60;99.90;;;;;;5010052;28;20045;-36
2023/01/15 02:02:27;;;;;;;8.43;2.45;;;6.60;99.90;;;;;;5007647;28;20502;-35
2023/01/15 02:04:53;;;;;;;6.75;0.68;;;6.60;99.90;;;;;;5001881;28;20053;-37
2023/01/15 02:07:18;;;;;;;6.72;0.60;;;6.60;99.90;;;;;;5006990;28;20446;-36
2023/01/15 02:09:44;;;;;;;5.43;0.60;;;6.60;99.90;;;;;;5006467;28;20073;-37
2023/01/15 02:12:30;;;;;;;9.15;0.85;;;6.60;99.90;;;;;;5007677;28;20150;-38
2023/01/15 02:15:12;;;;;;;6.07;0.70;;;6.60;99.90;;;;;;4994391;28;20046;-36
2023/01/15 02:17:45;;;;;;;9.68;0.93;;;6.60;99.90;;;;;;5010633;28;20141;-36
2023/01/15 02:20:34;;;;;;;5.90;0.80;;;6.60;99.90;;;;;;5007058;28;20068;-36
2023/01/15 02:23:00;;;;;;;15.15;1.52;;;6.50;99.90;;;;;;5006466;28;20465;-38
2023/01/15 02:25:30;;;;;;;6.25;1.13;;;6.50;99.90;;;;;;5002652;28;20129;-38
2023/01/15 02:28:11;;;;;;;9.77;0.85;;;6.50;99.90;;;;;;5006367;28;20498;-37
2023/01/15 02:30:46;;;;;;;6.78;0.80;;;6.50;99.90;;;;;;5003287;28;20038;-37
2023/01/15 02:33:20;;;;;;;13.32;0.88;;;6.50;99.90;;;;;;5001091;28;20042;-37
2023/01/15 02:36:05;;;;;;;5.22;0.50;;;6.50;99.90;;;;;;4990579;28;20145;-37
2023/01/15 02:38:39;;;;;;;2.60;0.65;;;6.50;99.90;;;;;;4991061;28;20504;-37
2023/01/15 02:41:15;;;;;;;5.07;0.60;;;6.50;99.90;;;;;;4984099;28;20089;-36
2023/01/15 02:43:48;;;;;;;8.75;0.70;;;6.50;99.90;;;;;;4989643;28;20042;-39
2023/01/15 02:46:17;;;;;;;9.23;0.95;;;6.50;99.90;;;;;;4988573;28;20042;-37
2023/01/15 02:48:49;;;;;;;7.32;0.85;;;6.60;99.90;;;;;;4987539;28;20046;-36
2023/01/15 02:51:21;;;;;;;8.10;1.63;;;6.50;99.90;;;;;;4988049;28;20439;-36
2023/01/15 02:53:48;;;;;;;;;;;6.50;99.90;;;;;;4988911;28;20046;-35
2023/01/15 02:56:25;;;;;;;3.63;0.75;;;6.60;99.90;;;;;;4990841;28;20038;-36
2023/01/15 02:58:58;;;;;;;4.95;0.88;;;6.60;99.90;;;;;;4987818;28;20484;-36
2023/01/15 03:01:46;;;;;;;9.02;0.73;;;6.50;99.90;;;;;;4987134;28;20049;-36
2023/01/15 03:04:35;;;;;;;7.18;0.52;;;6.50;99.90;;;;;;4984600;28;20507;-36
2023/01/15 03:07:23;;;;;;;9.07;1.10;;;6.50;99.90;;;;;;4983843;28;20051;-37
2023/01/15 03:09:50;;;;;;;3.83;0.40;;;6.50;99.90;;;;;;4988263;28;20068;-36
2023/01/15 03:12:29;;;;;;;8.32;1.27;;;6.50;99.90;;;;;;4989510;28;20121;-36
2023/01/15 03:16:33;;;;;;;7.13;0.85;;;6.50;99.90;;;;;;4986676;28;20044;-37
2023/01/15 03:18:00;;;;;;;5.28;0.90;;;6.50;99.90;;;;;;4987465;28;20050;-37
2023/01/15 03:20:28;;;;;;;5.20;0.57;;;6.50;99.90;;;;;;4993496;28;20124;-37
2023/01/15 03:23:04;;;;;;;6.95;1.05;;;6.50;99.90;;;;;;4992469;28;20046;-37
2023/01/15 03:25:36;;;;;;;9.52;1.17;;;6.50;99.90;;;;;;4993014;28;20100;-36
2023/01/15 03:28:04;;;;;;;7.18;0.93;;;6.40;99.90;;;;;;4990259;28;20053;-41
2023/01/15 03:30:31;;;;;;;5.45;1.17;;;6.40;99.90;;;;;;4989903;28;20038;-36
2023/01/15 03:32:57;;;;;;;9.43;1.00;;;6.40;99.90;;;;;;4991593;28;20133;-38
2023/01/15 03:35:48;;;;;;;9.65;0.90;;;6.50;99.90;;;;;;5002062;28;20134;-36
2023/01/15 03:38:16;;;;;;;7.50;0.77;;;6.40;99.90;;;;;;4990064;28;20046;-36
2023/01/15 03:40:52;;;;;;;12.50;0.85;;;6.40;99.90;;;;;;5011287;28;20490;-38
2023/01/15 03:43:39;;;;;;;4.97;0.68;;;6.40;99.90;;;;;;5011939;28;20068;-37
2023/01/15 03:46:17;;;;;;;5.25;0.88;;;6.40;99.90;;;;;;5009200;28;20392;-37
2023/01/15 03:48:58;;;;;;;7.38;0.98;;;6.40;99.90;;;;;;5012132;28;20042;-36
2023/01/15 03:51:36;;;;;;;8.68;0.88;;;6.40;99.90;;;;;;5009496;28;20042;-37
2023/01/15 03:54:08;;;;;;;6.55;0.93;;;6.40;99.90;;;;;;5008832;28;20546;-37
2023/01/15 03:56:40;;;;;;;9.18;0.50;;;6.40;99.90;;;;;;5010226;28;20045;-35
2023/01/15 03:59:10;;;;;;;9.88;0.70;;;6.40;99.90;;;;;;5004929;28;20038;-37
2023/01/15 04:01:39;;;;;;;4.88;0.60;;;6.40;99.90;;;;;;5006571;28;20041;-37
2023/01/15 04:04:06;;;;;;;10.30;1.05;;;6.40;99.90;;;;;;5003649;28;20038;-37
2023/01/15 04:06:35;;;;;;;3.60;0.50;;;6.30;99.90;;;;;;5010797;28;20041;-37
2023/01/15 04:09:04;;;;;;;6.60;1.33;;;6.40;99.90;;;;;;5008967;28;20081;-37
2023/01/15 04:11:29;;;;;;;3.78;0.68;;;6.40;99.90;;;;;;5011788;28;20068;-36
2023/01/15 04:13:55;;;;;;;8.48;0.60;;;6.30;99.90;;;;;;5011409;28;20105;-36
2023/01/15 04:16:27;;;;;;;6.95;1.02;;;6.30;99.90;;;;;;5015993;28;20487;-37
2023/01/15 04:18:53;;;;;;;7.63;1.23;;;6.30;99.90;;;;;;5008347;28;20064;-37
2023/01/15 04:21:19;;;;;;;9.60;0.93;;;6.30;99.90;;;;;;5012077;28;20475;-36
2023/01/15 04:23:45;;;;;;;4.82;0.90;;;6.30;99.90;;;;;;5009749;28;20041;-37
2023/01/15 04:26:11;;;;;;;6.32;0.70;;;6.30;99.90;;;;;;5006035;28;20045;-37
2023/01/15 04:28:37;;;;;;;5.00;0.68;;;6.30;99.90;;;;;;5010224;28;20657;-36
2023/01/15 04:31:03;;;;;;;6.30;0.93;;;6.30;99.90;;;;;;5013327;28;20029;-37
2023/01/15 04:33:29;;;;;;;3.20;0.50;;;6.30;99.90;;;;;;5009685;28;20049;-36
2023/01/15 04:35:57;;;;;;;8.25;1.58;;;6.30;99.90;;;;;;5005814;28;20503;-38
2023/01/15 04:38:23;;;;;;;6.53;0.70;;;6.30;99.90;;;;;;4997803;28;20053;-37
2023/01/15 04:46:20;;;;;;;7.03;1.13;;;6.30;99.90;;;;;;5007938;28;20128;-37
2023/01/15 04:48:46;;;;;;;7.85;1.17;;;6.30;99.90;;;;;;5012917;28;20638;-36
2023/01/15 04:51:12;;;;;;;5.47;0.60;;;6.20;99.90;;;;;;5011587;28;20057;-36
2023/01/15 04:53:37;;;;;;;9.05;0.80;;;6.20;99.90;;;;;;5007705;28;20034;-37
2023/01/15 04:56:04;;;;;;;10.98;1.23;;;6.30;99.90;;;;;;5009151;28;20100;-35
2023/01/15 04:58:30;;;;;;;9.10;1.67;;;6.20;99.90;;;;;;5011348;28;20045;-38
2023/01/15 05:00:56;;;;;;;12.18;1.17;;;6.20;99.90;;;;;;5008186;28;20045;-37
2023/01/15 05:03:21;;;;;;;5.65;0.93;;;6.20;99.90;;;;;;5006663;28;20046;-41
2023/01/15 05:05:49;;;;;;;6.93;1.45;;;6.10;99.90;;;;;;5009374;28;20057;-38
2023/01/15 05:08:15;;;;;;;10.60;1.02;;;6.10;99.90;;;;;;5007273;28;20052;-37
2023/01/15 05:10:41;;;;;;;10.52;1.88;;;6.10;99.90;;;;;;5009377;28;20152;-36
2023/01/15 05:13:07;;;;;;;9.00;1.05;;;6.10;99.90;;;;;;5009255;28;20538;-36
2023/01/15 05:15:32;;;;;;;6.93;1.20;;;6.10;99.90;;;;;;5010603;28;20045;-37
2023/01/15 05:17:58;;;;;;;10.77;0.93;;;6.10;99.90;;;;;;5007824;28;20537;-37
2023/01/15 05:20:24;;;;;;;6.38;0.85;;;6.10;99.90;;;;;;5005135;28;20037;-36
2023/01/15 05:22:50;;;;;;;4.93;0.70;;;6.10;99.90;;;;;;5012910;28;20038;-39
2023/01/15 05:25:16;;;;;;;4.10;0.65;;;6.10;99.90;;;;;;5008450;28;20623;-36
2023/01/15 05:27:41;;;;;;;4.18;0.43;;;6.10;99.90;;;;;;5002821;28;20037;-37
2023/01/15 05:30:08;;;;;;;5.45;0.75;;;6.20;99.90;;;;;;5012504;28;20052;-37
2023/01/15 05:32:33;;;;;;;3.50;0.70;;;6.10;99.90;;;;;;5009322;28;20042;-35
2023/01/15 05:34:59;;;;;;;5.60;0.50;;;6.10;99.90;;;;;;5001039;28;20049;-36
2023/01/15 05:37:25;;;;;;;6.75;0.50;;;6.00;99.90;;;;;;4998183;28;20046;-38
2023/01/15 05:39:50;;;;;;;6.13;0.68;;;6.10;99.90;;;;;;4997858;28;20050;-37
2023/01/15 05:42:16;;;;;;;6.82;1.10;;;6.10;99.90;;;;;;5002040;28;20052;-36
2023/01/15 05:44:42;;;;;;;6.18;1.33;;;6.00;99.90;;;;;;4995160;28;20070;-38
2023/01/15 05:47:09;;;;;;;5.57;0.60;;;6.00;99.90;;;;;;5006943;28;20049;-37
2023/01/15 05:49:35;;;;;;;5.60;0.50;;;6.00;99.90;;;;;;5008384;28;20509;-37
2023/01/15 05:52:01;;;;;;;11.52;0.70;;;6.00;99.90;;;;;;5003551;28;20042;-37
2023/01/15 05:54:29;;;;;;;7.75;0.70;;;5.90;99.90;;;;;;5003974;28;20172;-36
2023/01/15 05:56:55;;;;;;;3.53;0.57;;;6.00;99.90;;;;;;4992906;28;20038;-47
2023/01/15 05:59:24;;;;;;;8.18;1.77;;;5.90;99.90;;;;;;5010274;28;20972;-37
2023/01/15 06:01:50;;;;;;;8.05;0.60;;;5.90;99.90;;;;;;5005972;28;20506;-36
2023/01/15 06:04:19;;;;;;;4.30;0.70;;;5.90;99.90;;;;;;5011025;28;20046;-37
2023/01/15 06:06:46;;;;;;;7.32;0.77;;;5.90;99.90;;;;;;4985170;28;20515;-36
2023/01/15 06:09:13;;;;;;;4.93;0.50;;;5.90;99.90;;;;;;5002182;28;20396;-39
2023/01/15 06:11:39;;;;;;;11.18;0.77;;;5.80;99.90;;;;;;5005892;28;20060;-36
2023/01/15 06:14:06;;;;;;;5.50;0.55;;;5.80;99.90;;;;;;5002539;28;20034;-37
2023/01/15 06:16:32;;;;;;;5.97;0.90;;;5.70;99.90;;;;;;5003963;28;20038;-38
2023/01/15 06:19:03;;;;;;;8.20;0.88;;;5.70;99.90;;;;;;5007717;28;20104;-36
2023/01/15 06:21:30;;;;;;;10.25;0.82;;;5.60;99.90;;;;;;5006660;28;20042;-36
2023/01/15 06:23:56;;;;;;;5.10;0.80;;;5.60;99.90;;;;;;5005212;28;20034;-36
2023/01/15 06:26:22;;;;;;;6.70;0.73;;;5.60;99.90;;;;;;5004455;28;20412;-38
2023/01/15 06:28:48;;;;;;;4.70;1.35;;;5.60;99.90;;;;;;5006840;28;20176;-37
2023/01/15 06:31:17;;;;;;;6.53;0.80;;;5.50;99.90;;;;;;5007835;28;20117;-38
2023/01/15 06:33:43;;;;;;;4.30;0.85;;;5.50;99.90;;;;;;5002490;28;20073;-39
2023/01/15 06:36:17;;;;;;;6.82;0.63;;;5.50;99.90;;;;;;5005371;28;20054;-36
2023/01/15 06:38:44;;;;;;;4.88;0.60;;;5.40;99.90;;;;;;5001255;28;20041;-37
2023/01/15 06:49:54;;;;;;;7.70;0.73;;;5.40;99.90;;;;;;4962821;28;20066;-36
2023/01/15 06:52:22;;;;;;;4.90;1.08;;;5.50;99.90;;;;;;4963096;28;20066;-36
2023/01/15 06:54:47;;;;;;;6.78;0.38;;;5.60;99.90;;;;;;4981621;28;20053;-37
2023/01/15 06:57:13;;;;;;;4.10;0.55;;;5.60;99.90;;;;;;5009752;28;20033;-36
2023/01/15 06:59:39;;;;;;;2.55;0.38;;;5.60;99.90;;;;;;5007166;28;20061;-36
2023/01/15 07:02:04;;;;;;;5.35;0.35;;;5.60;99.90;;;;;;5005992;28;20034;-36
2023/01/15 07:04:31;;;;;;;7.10;0.85;;;5.60;99.90;;;;;;5007508;28;20046;-37
2023/01/15 07:06:56;;;;;;;7.72;1.15;;;5.50;99.90;;;;;;5009822;28;20038;-38
2023/01/15 07:09:22;;;;;;;4.68;0.55;;;5.50;99.90;;;;;;4994781;28;20042;-36
2023/01/15 07:11:48;;;;;;;4.90;0.47;;;5.50;99.90;;;;;;5007644;28;20038;-37
2023/01/15 07:14:22;;;;;;;4.38;0.55;;;5.60;99.90;;;;;;5008202;28;20120;-36
2023/01/15 07:16:49;;;;;;;4.57;0.75;;;5.60;99.90;;;;;;5011202;28;20103;-37
2023/01/15 07:19:15;;;;;;;3.15;0.30;;;5.50;99.90;;;;;;5012936;28;20064;-39
2023/01/15 07:21:41;;;;;;;6.90;0.45;;;5.40;99.90;;;;;;5008734;28;20045;-36
2023/01/15 07:24:09;;;;;;;4.50;0.57;;;5.30;99.90;;;;;;5008455;28;20484;-38
2023/01/15 07:26:35;;;;;;;9.50;0.75;;;5.30;99.90;;;;;;5010206;28;20037;-36
2023/01/15 07:29:01;;;;;;;5.45;0.40;;;5.30;99.90;;;;;;5006678;28;20057;-36
2023/01/15 07:31:26;;;;;;;5.82;0.93;;;5.20;99.90;;;;;;5008765;28;20455;-39
2023/01/15 07:33:54;;;;;;;7.78;0.70;;;5.30;99.90;;;;;;5008960;28;20049;-36
2023/01/15 07:36:19;;;;;;;7.80;0.70;;;5.30;99.90;;;;;;5008075;28;20538;-38
2023/01/15 07:38:45;;;;;;;8.02;0.95;;;5.30;99.90;;;;;;5009473;28;20085;-36
2023/01/15 07:52:08;;;;;;;6.07;0.68;;;5.30;99.90;;;;;;5008940;28;20069;-37
2023/01/15 07:54:37;;;;;;;1.90;0.40;;;5.20;99.90;;;;;;5008350;28;20088;-36
2023/01/15 07:57:03;;;;;;;5.25;0.45;;;5.20;99.90;;;;;;4991714;28;20033;-36
2023/01/15 07:59:29;;;;;;;4.93;0.43;;;5.20;99.90;;;;;;5007481;28;20089;-36
2023/01/15 08:01:54;;;;;;;4.30;0.57;;;5.30;99.90;;;;;;5003984;28;20057;-36
2023/01/15 08:04:20;;;;;;;9.63;1.40;;;5.30;99.90;;;;;;5005101;28;20038;-37
2023/01/15 08:06:46;;;;;;;4.00;0.55;;;5.20;99.90;;;;;;5007820;28;20048;-36
2023/01/15 08:09:11;;;;;;;5.43;0.60;;;5.20;99.90;;;;;;5007291;28;20026;-36
2023/01/15 08:17:09;;;;;;;3.55;0.40;;;5.20;99.90;;;;;;5006852;28;20081;-36
2023/01/15 08:19:35;;;;;;;7.53;0.70;;;5.20;99.90;;;;;;5010323;28;20042;-36
2023/01/15 08:22:00;;;;;;;9.15;0.57;;;5.20;99.90;;;;;;5005276;28;20049;-38
2023/01/15 08:24:27;;;;;;;5.50;0.73;;;5.20;99.90;;;;;;5011403;28;20411;-35
2023/01/15 08:26:53;;;;;;;3.95;0.32;;;5.30;99.90;;;;;;5010183;28;20049;-37
2023/01/15 08:29:20;;;;;;;2.95;0.47;;;5.40;99.90;;;;;;5008129;28;20411;-35
2023/01/15 08:31:46;;;;;;;8.32;1.13;;;5.50;99.90;;;;;;5009203;28;20045;-36
2023/01/15 08:34:11;;;;;;;5.72;0.98;;;5.60;99.90;;;;;;5006321;28;20033;-36
2023/01/15 08:36:37;;;;;;;5.55;0.68;;;5.70;99.90;;;;;;5007278;28;20479;-36
2023/01/15 08:39:03;;;;;;;4.75;0.60;;;5.70;99.90;;;;;;4991145;28;20370;-36
2023/01/15 08:41:29;;;;;;;4.32;0.60;;;5.70;99.90;;;;;;5001127;28;20056;-37
2023/01/15 08:43:55;;;;;;;7.50;0.85;;;5.70;99.90;;;;;;5006558;28;20053;-38
2023/01/15 08:46:21;;;;;;;5.95;0.70;;;5.70;99.90;;;;;;5010462;28;20033;-36
2023/01/15 08:48:47;;;;;;;4.38;0.50;;;5.50;99.90;;;;;;5010905;28;20407;-39
2023/01/15 08:51:13;;;;;;;4.80;0.43;;;5.10;99.90;;;;;;5007078;28;20038;-36
2023/01/15 08:53:39;;;;;;;3.28;0.40;;;4.80;99.90;;;;;;5007243;28;20053;-37
2023/01/15 08:56:15;;;;;;;3.53;0.30;;;4.60;99.90;;;;;;5009101;28;20041;-36
2023/01/15 08:58:42;;;;;;;5.22;0.65;;;4.40;99.90;;;;;;4991215;28;20044;-36
2023/01/15 09:01:10;;;;;;;1.08;0.13;;;4.30;99.90;;;;;;5005176;28;20034;-36
2023/01/15 09:03:37;;;;;;;3.65;0.65;;;4.30;99.90;;;;;;4999580;28;20659;-37
2023/01/15 09:06:04;;;;;;;4.38;0.70;;;4.20;99.90;;;;;;4996876;28;20041;-39
2023/01/15 09:08:30;;;;;;;8.75;0.75;;;4.10;99.90;;;;;;4999511;28;20041;-37
2023/01/15 09:10:58;;;;;;;5.25;0.47;;;4.00;99.90;;;;;;5007044;28;20091;-36
2023/01/15 09:13:24;;;;;;;6.10;0.40;;;3.80;99.90;;;;;;5007907;28;20046;-37
2023/01/15 09:15:50;;;;;;;2.55;0.20;;;3.70;99.90;;;;;;5005707;28;20081;-36
2023/01/15 09:18:18;;;;;;;4.03;0.30;;;3.70;99.90;;;;;;5010975;28;20079;-36
2023/01/15 09:20:47;;;;;;;3.78;0.90;;;3.70;99.90;;;;;;5006133;28;20050;-37
2023/01/15 09:23:13;;;;;;;11.30;1.17;;;3.80;99.90;;;;;;5008235;28;20041;-35
2023/01/15 09:25:39;;;;;;;9.57;1.20;;;3.90;99.90;;;;;;5004673;28;20128;-37
2023/01/15 09:28:04;;;;;;;10.48;0.75;;;4.10;99.90;;;;;;4994614;28;20137;-37
2023/01/15 09:30:30;;;;;;;5.78;1.05;;;4.20;99.90;;;;;;4988162;28;20070;-37
2023/01/15 09:32:56;;;;;;;12.30;1.15;;;4.20;99.90;;;;;;5000628;28;20052;-39
2023/01/15 09:35:21;;;;;;;8.75;0.80;;;4.30;99.90;;;;;;5005406;28;20084;-38
2023/01/15 09:37:52;;;;;;;6.10;0.70;;;4.40;99.90;;;;;;5008791;28;20091;-36
2023/01/15 09:40:44;;;;;;;7.28;0.30;;;4.50;99.90;;;;;;5004404;28;20519;-36
2023/01/15 09:43:55;;;;;;;8.35;1.77;;;4.60;99.90;;;;;;4998130;28;20046;-36
2023/01/15 09:46:38;;;;;;;6.00;0.50;;;4.70;99.90;;;;;;4954978;28;20054;-37
2023/01/15 09:49:42;;;;;;;4.20;0.45;;;4.70;99.90;;;;;;5001923;28;20037;-36
2023/01/15 09:52:35;;;;;;;7.82;0.70;;;4.70;99.90;;;;;;4970418;28;20053;-37
2023/01/15 09:55:24;;;;;;;8.23;0.50;;;4.70;99.90;;;;;;4997500;28;20669;-37
2023/01/15 09:57:54;;;;;;;3.67;1.05;;;4.80;99.90;;;;;;5003987;28;20487;-37
2023/01/15 10:00:26;;;;;;;7.63;0.50;;;4.90;99.90;;;;;;5002312;28;20096;-38
2023/01/15 10:03:04;;;;;;;10.55;0.90;;;4.90;99.90;;;;;;5003380;28;20445;-36
2023/01/15 10:05:35;;;;;;;5.45;0.40;;;5.10;99.90;;;;;;5008001;28;20037;-37
2023/01/15 10:08:09;;;;;;;9.40;0.80;;;5.10;99.90;;;;;;5004478;28;20036;-38
2023/01/15 10:10:58;;;;;;;6.35;0.77;;;5.20;99.90;;;;;;5007252;28;20069;-37
2023/01/15 10:13:48;;;;;;;4.68;1.52;;;5.10;99.90;;;;;;5006638;28;20522;-37
2023/01/15 10:16:23;;;;;;;10.20;0.70;;;5.20;99.90;;;;;;4987681;28;20112;-38
2023/01/15 10:18:49;;;;;;;10.23;0.82;;;5.30;99.90;;;;;;5003387;28;20030;-38
2023/01/15 10:21:33;;;;;;;5.57;0.50;;;5.30;99.90;;;;;;5004608;28;20060;-37
2023/01/15 10:24:09;;;;;;;6.95;1.10;;;5.30;99.90;;;;;;5002694;28;20130;-39
2023/01/15 10:26:45;;;;;;;8.88;0.65;;;5.30;99.90;;;;;;4995319;28;20406;-38
2023/01/15 10:29:21;;;;;;;2.83;0.40;;;5.30;99.90;;;;;;5003435;28;20038;-39
2023/01/15 10:31:53;;;;;;;8.68;0.85;;;5.30;99.90;;;;;;5009955;28;20038;-37
2023/01/15 10:34:41;;;;;;;6.90;0.60;;;5.30;99.90;;;;;;5009736;28;20354;-37
2023/01/15 10:37:29;;;;;;;5.28;0.52;;;5.40;99.90;;;;;;5012613;28;20049;-37
2023/01/15 10:40:11;;;;;;;7.60;0.65;;;5.40;99.90;;;;;;5009061;28;20053;-37
2023/01/15 10:42:57;;;;;;;7.30;0.60;;;5.50;99.90;;;;;;5010131;28;20042;-40
2023/01/15 10:45:30;;;;;;;6.53;0.57;;;5.50;99.90;;;;;;5005296;28;20620;-37
2023/01/15 10:48:01;;;;;;;5.57;0.73;;;5.10;99.90;;;;;;5005347;28;20052;-39
2023/01/15 10:50:27;;;;;;;9.50;0.87;;;5.00;99.90;;;;;;5005201;28;20097;-37
2023/01/15 10:52:58;;;;;;;5.32;0.85;;;5.00;99.90;;;;;;5008773;28;20034;-37
2023/01/15 10:55:35;;;;;;;7.47;1.52;;;5.00;99.90;;;;;;5002847;28;20042;-41
2023/01/15 10:58:19;;;;;;;6.70;0.80;;;5.20;99.90;;;;;;5002773;28;20044;-39
2023/01/15 11:00:51;;;;;;;5.45;0.73;;;5.30;99.90;;;;;;5008230;28;20057;-37
2023/01/15 11:03:23;;;;;;;7.22;0.70;;;5.30;99.90;;;;;;5007426;28;20046;-36
2023/01/15 11:05:48;;;;;;;6.73;0.77;;;5.40;99.90;;;;;;5010761;28;20049;-37
2023/01/15 11:08:33;;;;;;;3.42;0.95;;;5.50;99.90;;;;;;5007199;28;20471;-37
2023/01/15 11:11:19;;;;;;;5.78;0.70;;;5.60;99.90;;;;;;5009916;28;20046;-40
2023/01/15 11:19:36;;;;;;;7.18;0.85;;;5.90;99.90;;;;;;5010192;28;20121;-37
2023/01/15 11:22:17;;;;;;;6.55;0.77;;;6.10;99.90;;;;;;5010996;28;20120;-38
2023/01/15 11:24:52;;;;;;;5.95;0.47;;;6.30;99.90;;;;;;5007897;28;20065;-37
2023/01/15 11:27:27;;;;;;;2.97;0.77;;;6.40;99.90;;;;;;5010101;28;20483;-38
2023/01/15 11:29:55;;;;;;;7.35;0.63;;;6.50;99.90;;;;;;5013170;28;20092;-36
2023/01/15 11:32:37;;;;;;;3.78;0.50;;;6.50;99.90;;;;;;5009437;28;20034;-38
2023/01/15 11:35:17;;;;;;;5.60;0.70;;;6.50;99.90;;;;;;4999303;28;20060;-38
2023/01/15 11:37:42;;;;;;;4.72;0.68;;;6.50;99.90;;;;;;4986377;28;20050;-38
2023/01/15 11:40:20;;;;;;;4.95;0.57;;;6.60;99.90;;;;;;4990167;28;20030;-37
2023/01/15 11:51:13;;;;;;;5.07;0.90;;;6.70;99.90;;;;;;4982241;28;20448;-37
2023/01/15 11:53:53;;;;;;;14.23;1.13;;;6.70;99.90;;;;;;4987894;28;20046;-39
2023/01/15 11:56:22;;;;;;;10.20;1.58;;;6.70;99.90;;;;;;4989148;28;20042;-37
2023/01/15 11:58:52;;;;;;;14.70;1.38;;;6.70;99.90;;;;;;4983335;28;20069;-39
2023/01/15 12:01:37;;;;;;;6.03;0.52;;;6.80;99.90;;;;;;4978981;28;20049;-39
2023/01/15 12:04:06;;;;;;;10.20;0.80;;;6.80;99.90;;;;;;4975464;28;20519;-40
2023/01/15 12:06:35;;;;;;;6.45;0.70;;;6.80;99.90;;;;;;4984208;28;20038;-37
2023/01/15 12:09:20;;;;;;;3.00;0.50;;;6.80;99.90;;;;;;4982432;28;20054;-37
2023/01/15 12:12:18;;;;;;;4.70;0.50;;;6.80;99.90;;;;;;4986894;28;20042;-37
2023/01/15 12:15:05;;;;;;;3.95;0.50;;;6.80;99.90;;;;;;4946465;28;20413;-38
2023/01/15 12:17:34;;;;;;;10.68;1.45;;;6.60;99.90;;;;;;4987149;28;20100;-36
2023/01/15 12:20:15;;;;;;;8.40;0.70;;;6.50;99.90;;;;;;4987099;28;20503;-37
2023/01/15 12:23:17;;;;;;;10.13;0.90;;;6.80;99.90;;;;;;4982904;28;20489;-37
2023/01/15 12:25:42;;;;;;;10.88;0.95;;;7.30;99.90;;;;;;4982942;28;20101;-39
2023/01/15 12:28:16;;;;;;;5.88;0.73;;;7.10;99.90;;;;;;4987910;28;20049;-42
2023/01/15 12:30:54;;;;;;;5.13;1.50;;;6.90;99.90;;;;;;4980174;28;20124;-38
2023/01/15 12:33:23;;;;;;;4.10;0.73;;;6.60;99.90;;;;;;4987404;28;20495;-37
2023/01/15 12:35:59;;;;;;;3.38;0.40;;;6.40;99.90;;;;;;5001649;28;20050;-37
2023/01/15 12:38:46;;;;;;;6.38;0.63;;;6.40;99.90;;;;;;5007890;28;20042;-36
2023/01/15 12:47:24;;;;;;;6.22;0.93;;;6.20;99.90;;;;;;4996284;28;20490;-37
2023/01/15 12:50:17;;;;;;;9.57;1.02;;;5.80;99.90;;;;;;5005425;28;20037;-37
2023/01/15 12:52:45;;;;;;;7.40;0.75;;;5.50;99.90;;;;;;5002842;28;20038;-38
2023/01/15 12:55:21;;;;;;;7.65;0.52;;;5.10;99.90;;;;;;4998690;28;20041;-37
2023/01/15 12:57:55;;;;;;;6.03;0.60;;;5.00;99.90;;;;;;5002610;28;20034;-39
2023/01/15 13:00:27;;;;;;;9.02;0.73;;;5.00;99.90;;;;;;5002139;28;20074;-39
2023/01/15 13:03:14;;;;;;;4.85;0.77;;;5.10;99.90;;;;;;5005168;28;20503;-37
2023/01/15 13:05:56;;;;;;;6.45;0.40;;;5.10;99.90;;;;;;4986507;28;20042;-38
2023/01/15 13:08:28;;;;;;;5.97;1.13;;;5.30;99.90;;;;;;5003038;28;20424;-37
2023/01/15 13:10:53;;;;;;;15.20;2.07;;;5.40;99.90;;;;;;5004118;28;20135;-39
2023/01/15 13:13:28;;;;;;;8.70;0.73;;;5.60;99.90;;;;;;5004632;28;20041;-38
2023/01/15 13:16:05;;;;;;;6.35;0.80;;;5.80;99.90;;;;;;5003283;28;20038;-37
2023/01/15 13:18:52;;;;;;;6.82;0.93;;;6.10;99.90;;;;;;5003974;28;20410;-39
2023/01/15 13:21:19;;;;;;;5.00;0.65;;;6.30;99.90;;;;;;5002742;28;20085;-39
2023/01/15 13:24:03;;;;;;;7.85;1.00;;;6.50;99.90;;;;;;4994015;28;20104;-38
2023/01/15 13:26:59;;;;;;;12.15;0.88;;;6.50;99.90;;;;;;5004054;28;20175;-38
2023/01/15 13:29:44;;;;;;;5.13;0.75;;;6.50;99.90;;;;;;5006805;28;20407;-35
2023/01/15 13:32:24;;;;;;;3.63;1.00;;;6.40;99.90;;;;;;4998098;28;20042;-36
2023/01/15 13:34:55;;;;;;;8.43;0.70;;;6.40;99.90;;;;;;4996350;28;20057;-36
2023/01/15 13:37:33;;;;;;;6.45;0.75;;;6.50;99.90;;;;;;4987032;28;20046;-37
2023/01/15 13:40:24;;;;;;;5.82;0.52;;;6.60;99.90;;;;;;4984132;28;20046;-36
2023/01/15 13:42:51;;;;;;;5.80;0.65;;;6.50;99.90;;;;;;4975440;28;20121;-38
2023/01/15 13:45:26;;;;;;;8.43;0.70;;;6.50;99.90;;;;;;4977834;28;20078;-38
2023/01/15 13:48:01;;;;;;;4.45;0.60;;;6.50;99.90;;;;;;4983896;28;20783;-37
2023/01/15 13:50:33;;;;;;;7.00;1.40;;;6.50;99.90;;;;;;4984016;28;20130;-37
2023/01/15 13:53:05;;;;;;;9.18;0.95;;;6.50;99.90;;;;;;4981430;28;20538;-36
2023/01/15 13:55:38;;;;;;;5.03;0.67;;;6.50;99.90;;;;;;4986695;28;20077;-36
2023/01/15 13:58:21;;;;;;;5.88;0.80;;;6.50;99.90;;;;;;4963584;28;20048;-36
2023/01/15 14:00:47;;;;;;;8.23;0.93;;;6.50;99.90;;;;;;4987361;28;20046;-38
2023/01/15 14:03:29;;;;;;;9.80;0.93;;;6.50;99.90;;;;;;4984609;28;20046;-36
2023/01/15 14:06:03;;;;;;;2.78;0.30;;;6.50;99.90;;;;;;4982999;28;20053;-36
2023/01/15 14:08:38;;;;;;;8.02;2.63;;;6.10;99.90;;;;;;4983304;28;20049;-38
2023/01/15 14:11:04;;;;;;;6.78;1.65;;;5.40;99.90;;;;;;4986587;28;20062;-36
2023/01/15 14:13:51;;;;;;;2.65;0.57;;;5.00;99.90;;;;;;4981945;28;20084;-38